Time,TemperatureF,DewpointF,PressureIn,WindDirection,WindDirectionDegrees,WindSpeedMPH,WindSpeedGustMPH,Humidity,HourlyPrecipIn,Conditions,Clouds,dailyrainin,SolarRadiationWatts/m^2,SoftwareType,DateUTC
2013-07-03 00:39:00,65.0,48.0,-100.00,South,191,2.0,8.0,55,0.00,,,0.00,0.000000,,2013-07-03 06:39:00,
2013-07-03 00:50:00,65.0,48.0,-100.00,South,191,2.0,8.0,55,0.00,,,0.00,0.000000,,2013-07-03 06:50:00,
2013-07-03 00:56:00,65.0,48.0,-100.00,South,191,2.0,8.0,55,0.00,,,0.00,0.000000,,2013-07-03 06:56:00,
2013-07-03 01:02:00,65.0,48.0,-100.00,South,191,2.0,8.0,55,0.00,,,0.00,0.000000,,2013-07-03 07:02:00,
2013-07-03 01:28:00,63.0,47.0,-100.00,SE,129,1.0,6.0,55,0.00,,,0.00,0.000000,,2013-07-03 07:28:00,
2013-07-03 01:39:00,63.0,47.0,-100.00,SE,129,1.0,6.0,55,0.00,,,0.00,0.000000,,2013-07-03 07:39:00,
2013-07-03 01:47:00,63.0,47.0,-100.00,SE,129,1.0,6.0,55,0.00,,,0.00,0.000000,,2013-07-03 07:47:00,
2013-07-03 01:58:00,63.0,47.0,-100.00,SE,129,1.0,6.0,55,0.00,,,0.00,0.000000,,2013-07-03 07:58:00,
2013-07-03 02:38:00,64.0,45.0,-100.00,SE,141,1.0,7.0,50,0.00,,,0.00,0.000000,,2013-07-03 08:38:00,
2013-07-03 02:46:00,64.0,45.0,-100.00,SE,141,1.0,7.0,50,0.00,,,0.00,0.000000,,2013-07-03 08:46:00,
2013-07-03 02:56:00,64.0,45.0,-100.00,SE,141,1.0,7.0,50,0.00,,,0.00,0.000000,,2013-07-03 08:56:00,
2013-07-03 03:02:00,64.0,45.0,-100.00,SE,141,1.0,7.0,50,0.00,,,0.00,0.000000,,2013-07-03 09:02:00,
2013-07-03 03:39:00,60.0,45.0,-100.00,East,89,1.0,6.0,58,-99.99,,,0.00,0.000000,,2013-07-03 09:39:00,
2013-07-03 03:47:00,60.0,45.0,-100.00,East,89,1.0,6.0,58,-99.99,,,0.00,0.000000,,2013-07-03 09:47:00,
2013-07-03 03:57:00,60.0,45.0,-100.00,East,89,1.0,6.0,58,-99.99,,,0.00,0.000000,,2013-07-03 09:57:00,
2013-07-03 04:28:00,61.0,43.0,-100.00,SE,145,2.0,6.0,52,0.00,,,0.00,0.000000,,2013-07-03 10:28:00,
2013-07-03 04:37:00,61.0,43.0,-100.00,SE,145,2.0,6.0,52,0.00,,,0.00,0.000000,,2013-07-03 10:37:00,
2013-07-03 04:45:00,61.0,43.0,-100.00,SE,145,2.0,6.0,52,0.00,,,0.00,0.000000,,2013-07-03 10:45:00,
2013-07-03 04:55:00,61.0,43.0,-100.00,SE,145,2.0,6.0,52,0.00,,,0.00,0.000000,,2013-07-03 10:55:00,
2013-07-03 05:02:00,61.0,43.0,-100.00,SE,145,2.0,6.0,52,0.00,,,0.00,0.000000,,2013-07-03 11:02:00,
2013-07-03 07:54:00,58.0,44.0,-100.00,NNW,335,1.0,5.0,60,-99.99,,,0.00,24.000000,,2013-07-03 13:54:00,
2013-07-03 10:46:00,79.0,53.0,-100.00,SW,232,3.0,7.0,41,-99.99,,,0.00,550.000000,,2013-07-03 16:46:00,
2013-07-03 10:57:00,79.0,53.0,-100.00,SW,232,3.0,7.0,41,-99.99,,,0.00,550.000000,,2013-07-03 16:57:00,
2013-07-03 11:02:00,79.0,53.0,-100.00,SW,232,3.0,7.0,41,-99.99,,,0.00,550.000000,,2013-07-03 17:02:00,
2013-07-03 11:03:00,81.0,54.0,-100.00,WSW,245,2.0,7.0,40,0.00,,,0.00,702.000000,,2013-07-03 17:03:00,
2013-07-03 11:41:00,81.0,54.0,-100.00,WSW,245,2.0,7.0,40,0.00,,,0.00,702.000000,,2013-07-03 17:41:00,
2013-07-03 11:48:00,81.0,54.0,-100.00,WSW,245,2.0,7.0,40,0.00,,,0.00,702.000000,,2013-07-03 17:48:00,
2013-07-03 11:54:00,81.0,54.0,-100.00,WSW,245,2.0,7.0,40,0.00,,,0.00,702.000000,,2013-07-03 17:54:00,
2013-07-03 12:46:00,84.0,53.0,-100.00,WSW,251,2.0,6.0,34,0.00,,,0.00,809.000000,,2013-07-03 18:46:00,
2013-07-03 12:56:00,84.0,53.0,-100.00,WSW,251,2.0,6.0,34,0.00,,,0.00,809.000000,,2013-07-03 18:56:00,
2013-07-03 13:02:00,84.0,53.0,-100.00,WSW,251,2.0,6.0,34,0.00,,,0.00,809.000000,,2013-07-03 19:02:00,
2013-07-03 13:30:00,84.0,50.0,-100.00,SW,214,2.0,7.0,31,0.00,,,0.00,873.000000,,2013-07-03 19:30:00,
2013-07-03 13:38:00,84.0,50.0,-100.00,SW,214,2.0,7.0,31,0.00,,,0.00,873.000000,,2013-07-03 19:38:00,
2013-07-03 13:48:00,84.0,50.0,-100.00,SW,214,2.0,7.0,31,0.00,,,0.00,873.000000,,2013-07-03 19:48:00,
2013-07-03 13:55:00,84.0,50.0,-100.00,SW,214,2.0,7.0,31,0.00,,,0.00,873.000000,,2013-07-03 19:55:00,
2013-07-03 14:01:00,84.0,50.0,-100.00,SW,214,2.0,7.0,31,0.00,,,0.00,873.000000,,2013-07-03 20:01:00,
2013-07-03 14:37:00,84.0,50.0,-100.00,NW,315,3.0,10.0,31,0.00,,,0.00,906.000000,,2013-07-03 20:37:00,
2013-07-03 14:46:00,84.0,50.0,-100.00,NW,315,3.0,10.0,31,0.00,,,0.00,906.000000,,2013-07-03 20:46:00,
2013-07-03 14:55:00,84.0,50.0,-100.00,NW,315,3.0,10.0,31,0.00,,,0.00,906.000000,,2013-07-03 20:55:00,
2013-07-03 15:36:00,86.0,50.0,-100.00,WSW,255,2.0,8.0,29,0.00,,,0.00,892.000000,,2013-07-03 21:36:00,
2013-07-03 15:45:00,86.0,50.0,-100.00,WSW,255,2.0,8.0,29,0.00,,,0.00,892.000000,,2013-07-03 21:45:00,
2013-07-03 15:53:00,86.0,50.0,-100.00,WSW,255,2.0,8.0,29,0.00,,,0.00,892.000000,,2013-07-03 21:53:00,
2013-07-03 16:01:00,86.0,50.0,-100.00,WSW,255,2.0,8.0,29,0.00,,,0.00,892.000000,,2013-07-03 22:01:00,
2013-07-03 16:26:00,86.0,49.0,-100.00,West,264,2.0,8.0,28,0.00,,,0.00,800.000000,,2013-07-03 22:26:00,
2013-07-03 16:38:00,86.0,49.0,-100.00,West,264,2.0,8.0,28,0.00,,,0.00,800.000000,,2013-07-03 22:38:00,
2013-07-03 16:46:00,86.0,49.0,-100.00,West,264,2.0,8.0,28,0.00,,,0.00,800.000000,,2013-07-03 22:46:00,
2013-07-03 16:55:00,86.0,49.0,-100.00,West,264,2.0,8.0,28,0.00,,,0.00,800.000000,,2013-07-03 22:55:00,
2013-07-03 17:02:00,86.0,49.0,-100.00,West,264,2.0,8.0,28,0.00,,,0.00,800.000000,,2013-07-03 23:02:00,
2013-07-03 17:40:00,88.0,48.0,-100.00,NW,321,1.0,10.0,25,0.00,,,0.00,687.000000,,2013-07-03 23:40:00,
2013-07-03 17:45:00,88.0,48.0,-100.00,NW,321,1.0,10.0,25,0.00,,,0.00,687.000000,,2013-07-03 23:45:00,
2013-07-03 17:56:00,88.0,48.0,-100.00,NW,321,1.0,10.0,25,0.00,,,0.00,687.000000,,2013-07-03 23:56:00,
2013-07-03 18:02:00,88.0,48.0,-100.00,NW,321,1.0,10.0,25,0.00,,,0.00,687.000000,,2013-07-04 00:02:00,
2013-07-03 18:37:00,83.0,46.0,-100.00,NNE,28,2.0,9.0,27,0.00,,,0.00,329.000000,,2013-07-04 00:37:00,
2013-07-03 18:50:00,83.0,46.0,-100.00,NNE,28,2.0,9.0,27,0.00,,,0.00,329.000000,,2013-07-04 00:50:00,
2013-07-03 18:56:00,83.0,46.0,-100.00,NNE,28,2.0,9.0,27,0.00,,,0.00,329.000000,,2013-07-04 00:56:00,
2013-07-03 19:02:00,83.0,46.0,-100.00,NNE,28,2.0,9.0,27,0.00,,,0.00,329.000000,,2013-07-04 01:02:00,
2013-07-03 20:02:00,76.0,52.0,-100.00,WSW,239,2.0,6.0,43,0.00,,,0.00,80.000000,,2013-07-04 02:02:00,
2013-07-03 21:36:00,67.0,51.0,-100.00,South,190,1.0,4.0,57,0.00,,,0.00,17.000000,,2013-07-04 03:36:00,
2013-07-03 21:46:00,67.0,51.0,-100.00,South,190,1.0,4.0,57,0.00,,,0.00,17.000000,,2013-07-04 03:46:00,
2013-07-03 21:56:00,67.0,51.0,-100.00,South,190,1.0,4.0,57,0.00,,,0.00,17.000000,,2013-07-04 03:56:00,
2013-07-03 22:01:00,67.0,51.0,-100.00,South,190,1.0,4.0,57,0.00,,,0.00,17.000000,,2013-07-04 04:01:00,
2013-07-03 22:22:00,65.0,53.0,-100.00,SW,217,1.0,7.0,64,0.00,,,0.00,0.000000,,2013-07-04 04:22:00,
2013-07-03 22:33:00,65.0,53.0,-100.00,SW,217,1.0,7.0,64,0.00,,,0.00,0.000000,,2013-07-04 04:33:00,
2013-07-03 22:43:00,65.0,53.0,-100.00,SW,217,1.0,7.0,64,0.00,,,0.00,0.000000,,2013-07-04 04:43:00,
2013-07-03 22:52:00,65.0,53.0,-100.00,SW,217,1.0,7.0,64,0.00,,,0.00,0.000000,,2013-07-04 04:52:00,
2013-07-03 23:01:00,65.0,53.0,-100.00,SW,217,1.0,7.0,64,0.00,,,0.00,0.000000,,2013-07-04 05:01:00,
2013-07-03 23:22:00,63.0,49.0,-100.00,South,175,1.0,5.0,61,0.00,,,0.00,0.000000,,2013-07-04 05:22:00,
2013-07-03 23:33:00,63.0,49.0,-100.00,South,175,1.0,5.0,61,0.00,,,0.00,0.000000,,2013-07-04 05:33:00,
2013-07-03 23:43:00,63.0,49.0,-100.00,South,175,1.0,5.0,61,0.00,,,0.00,0.000000,,2013-07-04 05:43:00,
2013-07-03 23:52:00,63.0,49.0,-100.00,South,175,1.0,5.0,61,0.00,,,0.00,0.000000,,2013-07-04 05:52:00,